createdAt,value
2018-05-12T00:01:52.290Z,11.55
2018-05-12T00:04:21.178Z,8.50
2018-05-12T00:06:50.060Z,5.80
2018-05-12T00:09:18.951Z,5.95
2018-05-12T00:11:48.209Z,6.53
2018-05-12T00:14:17.308Z,5.80
2018-05-12T00:16:46.203Z,5.95
2018-05-12T00:19:15.095Z,11.25
2018-05-12T00:21:43.991Z,9.82
2018-05-12T00:24:12.893Z,11.15
2018-05-12T00:26:41.990Z,8.48
2018-05-12T00:29:10.882Z,11.12
2018-05-12T00:31:39.775Z,13.85
2018-05-12T00:34:08.675Z,14.55
2018-05-12T00:36:37.565Z,17.87
2018-05-12T00:39:06.458Z,14.70
2018-05-12T00:41:35.355Z,33.53
2018-05-12T00:44:04.439Z,21.98
2018-05-12T00:46:33.332Z,18.75
2018-05-12T00:49:03.088Z,11.57
2018-05-12T00:51:31.978Z,8.65
2018-05-12T00:54:00.862Z,6.57
2018-05-12T00:56:29.803Z,6.95
2018-05-12T00:58:58.697Z,6.05
2018-05-12T01:01:27.584Z,5.62
2018-05-12T01:03:56.467Z,5.28
2018-05-12T01:06:25.351Z,5.85
2018-05-12T01:08:54.240Z,5.85
2018-05-12T01:11:23.229Z,5.75
2018-05-12T01:13:52.390Z,5.68
2018-05-12T01:16:21.277Z,6.00
2018-05-12T01:18:50.171Z,6.87
2018-05-12T01:21:19.055Z,5.53
2018-05-12T01:23:47.939Z,6.37
2018-05-12T01:26:16.829Z,5.10
2018-05-12T01:28:45.719Z,4.72
2018-05-12T01:31:14.791Z,6.43
2018-05-12T01:33:43.691Z,5.60
2018-05-12T01:36:12.587Z,5.50
2018-05-12T01:38:41.493Z,6.03
2018-05-12T01:41:10.382Z,5.72
2018-05-12T01:43:39.293Z,5.90
2018-05-12T01:46:08.178Z,7.32
2018-05-12T01:48:37.066Z,4.90
2018-05-12T01:51:05.955Z,5.90
2018-05-12T01:53:34.848Z,6.12
2018-05-12T01:56:03.734Z,6.15
2018-05-12T01:58:32.623Z,5.90
2018-05-12T02:01:02.031Z,5.70
2018-05-12T02:03:30.919Z,5.72
2018-05-12T02:05:59.804Z,5.85
2018-05-12T02:08:28.694Z,5.40
2018-05-12T02:10:57.591Z,6.45
2018-05-12T02:13:26.475Z,6.28
2018-05-12T02:15:55.358Z,6.40
2018-05-12T02:18:24.739Z,5.15
2018-05-12T02:20:53.627Z,5.25
2018-05-12T02:23:22.554Z,5.75
2018-05-12T02:25:51.456Z,5.68
2018-05-12T02:28:20.345Z,6.55
2018-05-12T02:30:49.416Z,6.18
2018-05-12T02:33:18.303Z,5.22
2018-05-12T02:35:47.593Z,6.62
2018-05-12T02:38:16.490Z,5.68
2018-05-12T02:40:45.379Z,5.75
2018-05-12T02:43:14.264Z,5.12
2018-05-12T02:45:43.152Z,6.00
2018-05-12T02:48:12.039Z,5.55
2018-05-12T02:50:40.931Z,6.20
2018-05-12T02:53:09.881Z,5.65
2018-05-12T02:55:38.770Z,5.37
2018-05-12T02:58:07.667Z,5.55
2018-05-12T03:00:36.563Z,7.03
2018-05-12T03:03:05.456Z,5.22
2018-05-12T03:05:34.342Z,5.40
2018-05-12T03:08:03.228Z,5.78
2018-05-12T03:10:32.143Z,6.03
2018-05-12T03:13:01.035Z,6.55
2018-05-12T03:15:29.964Z,6.25
2018-05-12T03:17:58.931Z,5.22
2018-05-12T03:20:27.816Z,6.90
2018-05-12T03:22:56.742Z,5.93
2018-05-12T03:25:25.623Z,6.62
2018-05-12T03:27:54.508Z,5.45
2018-05-12T03:30:23.395Z,5.95
2018-05-12T03:32:52.283Z,5.55
2018-05-12T03:35:21.174Z,4.78
2018-05-12T03:37:50.068Z,5.35
2018-05-12T03:40:18.980Z,6.07
2018-05-12T03:42:47.867Z,5.68
2018-05-12T03:45:16.747Z,5.80
2018-05-12T03:47:45.643Z,6.18
2018-05-12T03:50:14.535Z,5.22
2018-05-12T03:52:43.419Z,5.60
2018-05-12T03:55:12.315Z,5.85
2018-05-12T03:57:41.227Z,4.68
2018-05-12T04:00:10.123Z,6.28
2018-05-12T04:02:39.030Z,4.85
2018-05-12T04:05:13.638Z,6.47
2018-05-12T04:07:48.247Z,5.22
2018-05-12T04:10:22.914Z,5.55
2018-05-12T04:12:51.795Z,4.30
2018-05-12T04:15:20.685Z,5.22
2018-05-12T04:17:49.574Z,5.87
2018-05-12T04:20:18.463Z,4.50
2018-05-12T04:22:47.355Z,4.85
2018-05-12T04:25:16.379Z,4.87
2018-05-12T04:27:45.464Z,4.82
2018-05-12T04:30:14.357Z,4.97
2018-05-12T04:32:43.243Z,5.43
2018-05-12T04:35:12.367Z,5.50
2018-05-12T04:37:41.258Z,4.90
2018-05-12T04:40:10.175Z,5.03
2018-05-12T04:42:39.111Z,5.10
2018-05-12T04:45:07.995Z,6.03
2018-05-12T04:47:36.884Z,6.05
2018-05-12T04:50:05.788Z,7.35
2018-05-12T04:52:34.686Z,5.70
2018-05-12T04:55:03.899Z,5.12
2018-05-12T04:57:32.788Z,5.40
2018-05-12T05:00:01.703Z,6.47
2018-05-12T05:02:30.766Z,6.35
2018-05-12T05:04:59.660Z,7.20
2018-05-12T05:07:28.556Z,7.57
2018-05-12T05:09:57.459Z,8.35
2018-05-12T05:12:26.348Z,7.00
2018-05-12T05:14:55.236Z,6.20
2018-05-12T05:17:24.127Z,5.28
2018-05-12T05:19:53.072Z,5.53
2018-05-12T05:22:21.965Z,6.18
2018-05-12T05:24:50.916Z,6.12
2018-05-12T05:27:19.798Z,5.20
2018-05-12T05:29:48.691Z,5.10
2018-05-12T05:32:17.631Z,4.97
2018-05-12T05:34:47.351Z,5.75
2018-05-12T05:37:16.269Z,4.47
2018-05-12T05:39:45.163Z,6.60
2018-05-12T05:42:14.052Z,4.62
2018-05-12T05:44:42.944Z,5.45
2018-05-12T05:47:11.837Z,5.40
2018-05-12T05:49:40.727Z,5.93
2018-05-12T05:52:09.611Z,6.35
2018-05-12T05:54:38.561Z,6.10
2018-05-12T05:57:07.453Z,6.18
2018-05-12T05:59:36.356Z,5.60
2018-05-12T06:02:05.250Z,7.43
2018-05-12T06:04:34.140Z,5.37
2018-05-12T06:07:03.112Z,6.15
2018-05-12T06:09:32.003Z,5.05
2018-05-12T06:12:00.987Z,6.28
2018-05-12T06:14:29.875Z,5.90
2018-05-12T06:16:58.766Z,7.60
2018-05-12T06:19:27.652Z,5.70
2018-05-12T06:21:56.535Z,6.30
2018-05-12T06:24:25.500Z,6.28
2018-05-12T06:26:54.382Z,7.15
2018-05-12T06:29:23.273Z,5.62
2018-05-12T06:31:52.164Z,6.28
2018-05-12T06:34:21.060Z,7.05
2018-05-12T06:36:49.947Z,6.25
2018-05-12T06:39:18.835Z,6.18
2018-05-12T06:41:47.867Z,6.30
2018-05-12T06:44:16.754Z,6.43
2018-05-12T06:46:45.643Z,6.45
2018-05-12T06:49:14.558Z,5.50
2018-05-12T06:51:43.443Z,5.97
2018-05-12T06:54:12.383Z,5.65
2018-05-12T06:56:41.267Z,6.87
2018-05-12T06:59:10.147Z,6.75
2018-05-12T07:01:39.036Z,7.25
2018-05-12T07:04:07.935Z,6.90
2018-05-12T07:06:36.823Z,6.45
2018-05-12T07:09:05.717Z,6.28
2018-05-12T07:11:34.624Z,6.20
2018-05-12T07:14:03.510Z,5.90
2018-05-12T07:16:32.407Z,5.70
2018-05-12T07:19:01.339Z,5.60
2018-05-12T07:21:30.226Z,6.22
2018-05-12T07:23:59.120Z,5.85
2018-05-12T07:26:27.999Z,6.43
2018-05-12T07:28:56.888Z,5.20
2018-05-12T07:31:25.776Z,5.47
2018-05-12T07:33:54.673Z,7.82
2018-05-12T07:36:23.703Z,5.43
2018-05-12T07:38:52.609Z,5.28
2018-05-12T07:41:21.502Z,5.80
2018-05-12T07:43:50.388Z,4.93
2018-05-12T07:46:19.271Z,6.43
2018-05-12T07:48:48.158Z,6.70
2018-05-12T07:51:17.058Z,5.30
2018-05-12T07:53:45.975Z,5.15
2018-05-12T07:56:14.858Z,5.70
2018-05-12T07:58:43.743Z,5.35
2018-05-12T08:01:12.635Z,4.55
2018-05-12T08:03:41.519Z,4.28
2018-05-12T08:06:10.400Z,4.72
2018-05-12T08:08:39.293Z,4.93
2018-05-12T08:11:08.516Z,5.55
2018-05-12T08:13:37.411Z,5.15
2018-05-12T08:16:06.298Z,4.90
2018-05-12T08:18:35.187Z,5.22
2018-05-12T08:21:04.071Z,4.97
2018-05-12T08:23:32.963Z,5.40
2018-05-12T08:26:01.907Z,4.70
2018-05-12T08:28:30.946Z,4.35
2018-05-12T08:30:59.835Z,6.07
2018-05-12T08:33:28.735Z,4.75
2018-05-12T08:35:57.619Z,4.70
2018-05-12T08:38:26.514Z,4.60
2018-05-12T08:40:56.023Z,4.37
2018-05-12T08:43:24.919Z,5.20
2018-05-12T08:45:53.802Z,4.90
2018-05-12T08:48:22.771Z,4.35
2018-05-12T08:50:51.612Z,4.22
2018-05-12T08:53:20.503Z,5.35
2018-05-12T08:55:49.616Z,4.22
2018-05-12T08:58:18.881Z,4.45
2018-05-12T09:00:47.771Z,4.40
2018-05-12T09:03:16.670Z,4.57
2018-05-12T09:05:45.583Z,4.90
2018-05-12T09:08:14.475Z,4.15
2018-05-12T09:10:43.542Z,4.57
2018-05-12T09:13:12.479Z,3.90
2018-05-12T09:15:41.376Z,3.90
2018-05-12T09:18:10.415Z,5.37
2018-05-12T09:20:39.307Z,4.40
2018-05-12T09:23:08.199Z,3.83
2018-05-12T09:25:37.371Z,3.92
2018-05-12T09:28:06.213Z,3.30
2018-05-12T09:30:35.481Z,3.60
2018-05-12T09:33:04.385Z,5.20
2018-05-12T09:35:33.283Z,3.97
2018-05-12T09:38:02.174Z,3.37
2018-05-12T09:40:31.067Z,3.37
2018-05-12T09:42:59.955Z,3.90
2018-05-12T09:45:28.853Z,3.87
2018-05-12T09:47:57.812Z,3.03
2018-05-12T09:50:26.700Z,3.83
2018-05-12T09:52:55.650Z,3.17
2018-05-12T09:55:24.547Z,3.60
2018-05-12T09:57:53.540Z,3.40
2018-05-12T10:00:25.849Z,3.17
2018-05-12T10:02:54.743Z,3.90
2018-05-12T10:05:23.637Z,3.07
2018-05-12T10:07:52.524Z,2.97
2018-05-12T10:10:21.485Z,3.50
2018-05-12T10:12:50.427Z,2.70
2018-05-12T10:15:19.290Z,3.20
2018-05-12T10:17:48.695Z,3.73
2018-05-12T10:20:17.583Z,3.80
2018-05-12T10:22:46.491Z,3.47
2018-05-12T10:25:15.449Z,3.83
2018-05-12T10:27:44.470Z,3.30
2018-05-12T10:30:13.436Z,3.53
2018-05-12T10:32:42.319Z,3.30
2018-05-12T10:35:11.351Z,3.47
2018-05-12T10:37:40.247Z,3.37
2018-05-12T10:40:09.151Z,3.37
2018-05-12T10:42:38.035Z,2.73
2018-05-12T10:45:06.919Z,3.20
2018-05-12T10:47:35.839Z,3.33
2018-05-12T10:50:04.729Z,3.77
2018-05-12T10:52:33.619Z,3.60
2018-05-12T10:55:02.516Z,3.57
2018-05-12T10:57:31.432Z,3.07
2018-05-12T11:00:00.322Z,3.13
2018-05-12T11:02:29.211Z,3.43
2018-05-12T11:04:58.146Z,3.87
2018-05-12T11:07:27.044Z,31.57
2018-05-12T11:09:56.027Z,3.20
2018-05-12T11:12:24.910Z,3.03
2018-05-12T11:14:53.804Z,4.63
2018-05-12T11:17:22.687Z,3.00
2018-05-12T11:19:51.575Z,4.87
2018-05-12T11:22:20.672Z,3.20
2018-05-12T11:24:49.588Z,2.30
2018-05-12T11:27:18.475Z,2.97
2018-05-12T11:29:47.363Z,2.93
2018-05-12T11:32:16.297Z,3.17
2018-05-12T11:34:45.178Z,2.30
2018-05-12T11:37:14.065Z,2.47
2018-05-12T11:39:43.107Z,2.60
2018-05-12T11:42:12.008Z,2.77
2018-05-12T11:44:40.963Z,2.03
2018-05-12T11:47:10.057Z,3.60
2018-05-12T11:49:38.944Z,3.07
2018-05-12T11:52:07.841Z,2.50
2018-05-12T11:54:36.733Z,2.87
2018-05-12T11:57:05.626Z,2.50
2018-05-12T11:59:34.675Z,2.70
2018-05-12T12:02:03.812Z,2.80
2018-05-12T12:04:32.699Z,2.80
2018-05-12T12:07:01.609Z,2.50
2018-05-12T12:09:30.491Z,2.13
2018-05-12T12:11:59.383Z,2.80
2018-05-12T12:14:28.276Z,3.00
2018-05-12T12:16:57.542Z,2.53
2018-05-12T12:19:26.440Z,2.30
2018-05-12T12:21:55.323Z,2.67
2018-05-12T12:24:24.215Z,2.70
2018-05-12T12:26:53.099Z,2.73
2018-05-12T12:29:22.155Z,2.70
2018-05-12T12:31:51.051Z,2.67
2018-05-12T12:34:19.936Z,2.60
2018-05-12T12:36:48.963Z,2.77
2018-05-12T12:39:17.871Z,3.70
2018-05-12T12:41:46.767Z,3.00
2018-05-12T12:44:15.710Z,2.40
2018-05-12T12:46:44.607Z,2.50
2018-05-12T12:49:13.507Z,2.80
2018-05-12T12:51:42.430Z,2.83
2018-05-12T12:54:11.471Z,3.43
2018-05-12T12:56:40.362Z,2.53
2018-05-12T12:59:09.255Z,2.60
2018-05-12T13:01:38.147Z,2.60
2018-05-12T13:04:07.059Z,4.90
2018-05-12T13:06:36.557Z,2.47
2018-05-12T13:09:05.454Z,2.67
2018-05-12T13:11:34.356Z,2.03
2018-05-12T13:14:03.249Z,2.03
2018-05-12T13:16:32.211Z,2.40
2018-05-12T13:19:01.104Z,2.23
2018-05-12T13:21:29.991Z,2.70
2018-05-12T13:23:59.405Z,2.37
2018-05-12T13:26:28.314Z,2.60
2018-05-12T13:28:57.215Z,2.70
2018-05-12T13:31:26.121Z,2.53
2018-05-12T13:33:55.020Z,3.00
2018-05-12T13:36:23.938Z,2.30
2018-05-12T13:38:52.826Z,2.03
2018-05-12T13:41:21.731Z,2.33
2018-05-12T13:43:50.626Z,2.13
2018-05-12T13:46:19.538Z,2.77
2018-05-12T13:48:48.438Z,2.10
2018-05-12T13:51:17.339Z,3.37
2018-05-12T13:53:46.911Z,2.77
2018-05-12T13:56:15.799Z,2.80
2018-05-12T13:58:44.696Z,2.70
2018-05-12T14:01:13.587Z,2.53
2018-05-12T14:03:42.486Z,2.50
2018-05-12T14:06:11.425Z,2.47
2018-05-12T14:08:40.335Z,3.40
2018-05-12T14:11:09.219Z,2.27
2018-05-12T14:13:38.129Z,2.80
2018-05-12T14:16:07.019Z,2.37
2018-05-12T14:18:35.926Z,2.77
2018-05-12T14:21:04.806Z,2.60
2018-05-12T14:23:33.694Z,3.30
2018-05-12T14:26:02.632Z,4.17
2018-05-12T14:28:31.523Z,2.73
2018-05-12T14:31:00.423Z,1.97
2018-05-12T14:33:29.312Z,2.67
2018-05-12T14:35:58.219Z,2.73
2018-05-12T14:38:27.143Z,2.60
2018-05-12T14:40:56.042Z,8.73
2018-05-12T14:43:24.940Z,6.30
2018-05-12T14:45:54.225Z,9.93
2018-05-12T14:48:23.123Z,36.63
2018-05-12T14:50:52.031Z,14.70
2018-05-12T14:53:20.932Z,7.37
2018-05-12T14:55:49.826Z,4.90
2018-05-12T14:58:18.728Z,5.87
2018-05-12T15:00:47.631Z,7.13
2018-05-12T15:03:16.683Z,10.20
2018-05-12T15:05:45.585Z,6.87
2018-05-12T15:08:14.955Z,2.93
2018-05-12T15:10:43.775Z,3.00
2018-05-12T15:13:12.714Z,3.50
2018-05-12T15:15:41.637Z,6.23
2018-05-12T15:18:10.623Z,4.17
2018-05-12T15:20:39.535Z,3.43
2018-05-12T15:23:08.471Z,2.77
2018-05-12T15:25:37.702Z,2.97
2018-05-12T15:28:06.591Z,2.60
2018-05-12T15:30:35.486Z,2.93
2018-05-12T15:33:04.383Z,3.60
2018-05-12T15:35:34.199Z,3.20
2018-05-12T15:38:03.091Z,2.40
2018-05-12T15:40:32.008Z,2.80
2018-05-12T15:43:00.919Z,2.60
2018-05-12T15:45:29.823Z,2.67
2018-05-12T15:47:58.728Z,3.55
2018-05-12T15:50:27.631Z,2.83
2018-05-12T15:52:56.534Z,4.55
2018-05-12T15:55:25.616Z,3.85
2018-05-12T15:57:54.519Z,4.25
2018-05-12T16:00:23.422Z,6.00
2018-05-12T16:02:52.478Z,4.32
2018-05-12T16:05:21.378Z,2.97
2018-05-12T16:07:50.279Z,3.35
2018-05-12T16:10:19.179Z,3.40
2018-05-12T16:12:48.138Z,13.85
2018-05-12T16:15:17.031Z,5.50
2018-05-12T16:17:45.935Z,15.40
2018-05-12T16:20:14.846Z,4.93
2018-05-12T16:22:43.744Z,6.72
2018-05-12T16:25:12.671Z,5.87
2018-05-12T16:27:41.566Z,18.75
2018-05-12T16:30:10.473Z,10.55
2018-05-12T16:32:39.369Z,3.85
2018-05-12T16:35:08.267Z,3.92
2018-05-12T16:37:37.169Z,4.43
2018-05-12T16:40:06.076Z,3.50
2018-05-12T16:42:35.128Z,2.83
2018-05-12T16:45:04.283Z,4.10
2018-05-12T16:47:33.183Z,3.15
2018-05-12T16:50:02.443Z,3.45
2018-05-12T16:52:31.346Z,2.90
2018-05-12T16:55:00.238Z,2.83
2018-05-12T16:57:29.127Z,2.95
2018-05-12T16:59:58.053Z,3.00
2018-05-12T17:02:27.103Z,2.72
2018-05-12T17:04:55.994Z,3.03
2018-05-12T17:07:24.882Z,4.40
2018-05-12T17:09:53.782Z,3.12
2018-05-12T17:12:22.721Z,3.30
2018-05-12T17:14:51.789Z,3.92
2018-05-12T17:17:20.822Z,3.80
2018-05-12T17:19:49.719Z,2.83
2018-05-12T17:22:18.618Z,3.10
2018-05-12T17:24:47.506Z,3.60
2018-05-12T17:27:16.449Z,3.12
2018-05-12T17:29:45.393Z,3.08
2018-05-12T17:32:14.273Z,2.97
2018-05-12T17:34:43.169Z,4.12
2018-05-12T17:37:12.104Z,3.62
2018-05-12T17:39:41.307Z,2.97
2018-05-12T17:42:10.191Z,3.50
2018-05-12T17:44:39.098Z,3.20
2018-05-12T17:47:08.367Z,3.25
2018-05-12T17:49:37.467Z,2.87
2018-05-12T17:52:06.362Z,3.20
2018-05-12T17:54:35.250Z,3.55
2018-05-12T17:57:04.135Z,2.95
2018-05-12T17:59:33.023Z,3.10
2018-05-12T18:02:01.968Z,2.60
2018-05-12T18:04:31.215Z,3.35
2018-05-12T18:07:00.323Z,3.05
2018-05-12T18:09:29.206Z,2.95
2018-05-12T18:11:58.102Z,3.30
2018-05-12T18:14:26.994Z,2.65
2018-05-12T18:16:55.878Z,3.40
2018-05-12T18:19:24.771Z,2.95
2018-05-12T18:21:54.072Z,3.60
2018-05-12T18:24:23.143Z,5.03
2018-05-12T18:26:52.076Z,3.65
2018-05-12T18:29:21.351Z,3.90
2018-05-12T18:31:50.271Z,3.20
2018-05-12T18:34:19.157Z,4.60
2018-05-12T18:36:48.230Z,3.45
2018-05-12T18:39:17.123Z,3.53
2018-05-12T18:41:46.251Z,4.30
2018-05-12T18:44:15.239Z,5.65
2018-05-12T18:46:44.068Z,7.55
2018-05-12T18:49:12.954Z,13.45
2018-05-12T18:51:41.840Z,15.07
2018-05-12T18:54:10.734Z,16.35
2018-05-12T18:56:39.764Z,15.50
2018-05-12T18:59:08.674Z,12.85
2018-05-12T19:01:37.691Z,9.98
2018-05-12T19:04:06.584Z,10.77
2018-05-12T19:06:35.487Z,12.90
2018-05-12T19:09:04.376Z,6.90
2018-05-12T19:11:33.280Z,6.68
2018-05-12T19:14:02.178Z,9.05
2018-05-12T19:16:31.079Z,11.65
2018-05-12T19:18:59.995Z,11.48
2018-05-12T19:21:28.887Z,12.60
2018-05-12T19:23:57.784Z,13.57
2018-05-12T19:26:26.679Z,10.40
2018-05-12T19:28:56.190Z,9.48
2018-05-12T19:31:25.462Z,8.23
2018-05-12T19:33:54.355Z,8.20
2018-05-12T19:36:23.247Z,5.82
2018-05-12T19:38:52.173Z,5.43
2018-05-12T19:41:21.065Z,5.50
2018-05-12T19:43:50.037Z,8.55
2018-05-12T19:46:19.000Z,19.23
2018-05-12T19:48:48.318Z,19.10
2018-05-12T19:51:17.243Z,36.88
2018-05-12T19:53:46.138Z,30.10
2018-05-12T19:56:15.053Z,17.33
2018-05-12T19:58:43.944Z,10.63
2018-05-12T20:01:13.379Z,7.50
2018-05-12T20:03:42.272Z,7.97
2018-05-12T20:06:11.190Z,7.07
2018-05-12T20:08:40.077Z,5.80
2018-05-12T20:11:08.967Z,5.18
2018-05-12T20:13:38.087Z,5.32
2018-05-12T20:16:07.021Z,5.55
2018-05-12T20:18:35.899Z,6.05
2018-05-12T20:21:04.820Z,5.35
2018-05-12T20:23:33.711Z,5.93
2018-05-12T20:26:02.604Z,4.70
2018-05-12T20:28:31.495Z,5.00
2018-05-12T20:31:00.433Z,4.05
2018-05-12T20:33:29.343Z,5.32
2018-05-12T20:35:58.263Z,5.50
2018-05-12T20:38:27.154Z,5.20
2018-05-12T20:40:56.056Z,4.85
2018-05-12T20:43:25.087Z,4.95
2018-05-12T20:45:53.976Z,4.10
2018-05-12T20:48:22.915Z,5.28
2018-05-12T20:50:51.869Z,4.80
2018-05-12T20:53:20.782Z,4.22
2018-05-12T20:55:49.680Z,4.82
2018-05-12T20:58:18.576Z,4.28
2018-05-12T21:00:47.506Z,5.32
2018-05-12T21:03:16.403Z,4.53
2018-05-12T21:05:45.304Z,4.07
2018-05-12T21:08:14.185Z,4.65
2018-05-12T21:10:43.077Z,4.68
2018-05-12T21:13:11.994Z,5.57
2018-05-12T21:15:40.878Z,6.37
2018-05-12T21:18:09.768Z,4.00
2018-05-12T21:20:38.660Z,4.40
2018-05-12T21:23:07.542Z,4.62
2018-05-12T21:25:36.895Z,3.87
2018-05-12T21:28:05.800Z,4.47
2018-05-12T21:30:34.688Z,3.70
2018-05-12T21:33:03.572Z,4.80
2018-05-12T21:35:32.455Z,4.75
2018-05-12T21:38:01.354Z,4.07
2018-05-12T21:40:30.246Z,4.90
2018-05-12T21:42:59.159Z,4.65
2018-05-12T21:45:28.051Z,5.55
2018-05-12T21:47:56.934Z,4.32
2018-05-12T21:50:25.823Z,4.50
2018-05-12T21:52:54.710Z,4.55
2018-05-12T21:55:23.600Z,5.03
2018-05-12T21:57:52.495Z,5.22
2018-05-12T22:00:21.442Z,3.87
2018-05-12T22:02:50.334Z,5.25
2018-05-12T22:05:19.231Z,3.87
2018-05-12T22:07:48.223Z,4.97
2018-05-12T22:10:17.062Z,4.78
2018-05-12T22:12:46.001Z,4.50
2018-05-12T22:15:14.887Z,4.18
2018-05-12T22:17:43.775Z,3.60
2018-05-12T22:20:12.686Z,4.12
2018-05-12T22:22:41.571Z,4.82
2018-05-12T22:25:10.454Z,5.18
2018-05-12T22:27:39.347Z,5.25
2018-05-12T22:30:08.459Z,3.85
2018-05-12T22:32:37.348Z,4.57
2018-05-12T22:35:06.237Z,5.22
2018-05-12T22:37:35.129Z,4.93
2018-05-12T22:40:04.023Z,4.80
2018-05-12T22:42:32.907Z,4.60
2018-05-12T22:45:01.808Z,5.60
2018-05-12T22:47:30.695Z,4.30
2018-05-12T22:49:59.591Z,4.97
2018-05-12T22:52:28.479Z,4.93
2018-05-12T22:54:57.363Z,4.75
2018-05-12T22:57:26.875Z,4.90
2018-05-12T22:59:55.821Z,5.18
2018-05-12T23:02:24.982Z,4.22
2018-05-12T23:04:53.866Z,5.15
2018-05-12T23:07:22.747Z,4.82
2018-05-12T23:09:51.634Z,4.15
2018-05-12T23:12:20.519Z,4.50
2018-05-12T23:14:49.459Z,5.05
2018-05-12T23:17:18.345Z,4.35
2018-05-12T23:19:47.242Z,5.15
2018-05-12T23:22:16.127Z,4.97
2018-05-12T23:24:45.015Z,5.25
2018-05-12T23:27:13.906Z,5.18
2018-05-12T23:29:42.862Z,4.95
2018-05-12T23:32:11.747Z,5.68
2018-05-12T23:34:40.634Z,5.25
2018-05-12T23:37:09.514Z,4.80
2018-05-12T23:39:38.405Z,5.05
2018-05-12T23:42:07.337Z,4.60
2018-05-12T23:44:36.378Z,4.32
2018-05-12T23:47:05.270Z,4.93
2018-05-12T23:49:34.159Z,5.87
2018-05-12T23:52:03.047Z,4.60
2018-05-12T23:54:31.931Z,5.50
2018-05-12T23:57:00.810Z,5.40
2018-05-12T23:59:29.771Z,5.05
